Time;durP1;ratioP1;P1;durP2;ratioP2;P2;SDS_P1;SDS_P2;PMS_P1;PMS_P2;Temp;Humidity;BMP_temperature;BMP_pressure;BME280_temperature;BME280_humidity;BME280_pressure;Samples;Min_cycle;Max_cycle;Signal;HPM_P1;HPM_P2
2022/02/13 00:02:15;;;;;;;62.97;31.07;;;-1.20;99.90;;;;;;2586391;54;20089;31
2022/02/13 00:04:50;;;;;;;61.27;30.07;;;-1.30;99.90;;;;;;2605179;46;21090;31
2022/02/13 00:07:21;;;;;;;57.97;28.97;;;-1.30;99.90;;;;;;2604679;46;21129;31
2022/02/13 00:09:58;;;;;;;65.65;31.60;;;-1.30;99.90;;;;;;2586080;54;20258;31
2022/02/13 00:12:30;;;;;;;63.00;31.95;;;-1.30;99.90;;;;;;2586598;54;20068;31
2022/02/13 00:15:03;;;;;;;64.30;31.50;;;-1.40;99.90;;;;;;2604993;46;21441;31
2022/02/13 00:17:36;;;;;;;65.78;34.13;;;-1.40;99.90;;;;;;2586248;54;20026;31
2022/02/13 00:20:24;;;;;;;64.93;31.63;;;-1.40;99.90;;;;;;2586431;54;20974;31
2022/02/13 00:22:57;;;;;;;61.13;30.77;;;-1.40;99.90;;;;;;2586503;54;20018;31
2022/02/13 00:25:33;;;;;;;60.97;30.63;;;-1.40;99.90;;;;;;2586371;54;20045;31
2022/02/13 00:28:11;;;;;;;59.70;28.27;;;-1.40;99.90;;;;;;2586237;54;19941;31
2022/02/13 00:30:46;;;;;;;58.88;28.77;;;-1.40;99.90;;;;;;2586658;54;20827;31
2022/02/13 00:33:19;;;;;;;62.42;28.10;;;-1.40;99.90;;;;;;2586537;54;20022;31
2022/02/13 00:35:51;;;;;;;50.72;26.70;;;-1.40;99.90;;;;;;2586433;54;20851;31
2022/02/13 00:38:24;;;;;;;55.15;28.00;;;-1.40;99.90;;;;;;2605161;46;20958;31
2022/02/13 00:41:00;;;;;;;55.57;28.20;;;-1.40;99.90;;;;;;2693131;39;20386;31
2022/02/13 00:43:33;;;;;;;52.60;25.45;;;-1.40;99.90;;;;;;2586541;54;20052;31
2022/02/13 00:46:08;;;;;;;55.88;27.15;;;-1.40;99.90;;;;;;2586299;54;20294;31
2022/02/13 00:48:41;;;;;;;54.15;26.50;;;-1.40;99.90;;;;;;2586410;54;20032;31
2022/02/13 00:51:14;;;;;;;83.07;34.90;;;-1.50;99.90;;;;;;2586360;54;20571;31
2022/02/13 00:53:45;;;;;;;73.43;32.75;;;-1.40;99.90;;;;;;2586287;54;20948;31
2022/02/13 00:56:21;;;;;;;54.65;25.15;;;-1.40;99.90;;;;;;2586202;54;20932;31
2022/02/13 00:58:54;;;;;;;48.00;23.40;;;-1.40;99.90;;;;;;2586372;54;20030;31
2022/02/13 01:01:26;;;;;;;65.10;28.40;;;-1.40;99.90;;;;;;2586293;54;20062;31
2022/02/13 01:03:59;;;;;;;60.90;28.25;;;-1.40;99.90;;;;;;2586338;54;20257;31
2022/02/13 01:06:30;;;;;;;53.80;25.05;;;-1.30;99.90;;;;;;2586407;54;20923;31
2022/02/13 01:09:04;;;;;;;59.72;26.63;;;-1.30;99.90;;;;;;2586266;54;20034;31
2022/02/13 01:11:40;;;;;;;44.85;22.25;;;-1.30;99.90;;;;;;2586247;54;20026;31
2022/02/13 01:14:12;;;;;;;41.28;20.25;;;-1.30;99.90;;;;;;2586370;54;20855;31
2022/02/13 01:16:46;;;;;;;37.80;19.80;;;-1.30;99.90;;;;;;2586195;54;20909;31
2022/02/13 01:19:20;;;;;;;38.35;20.05;;;-1.30;99.90;;;;;;2586209;54;20049;31
2022/02/13 01:21:54;;;;;;;40.33;20.03;;;-1.30;99.90;;;;;;2586176;54;20931;31
2022/02/13 01:24:27;;;;;;;47.47;20.03;;;-1.30;99.90;;;;;;2586442;54;20913;31
2022/02/13 01:27:03;;;;;;;43.30;21.67;;;-1.30;99.90;;;;;;2586577;54;20890;31
2022/02/13 01:29:36;;;;;;;51.63;22.70;;;-1.40;99.90;;;;;;2586090;54;20031;31
2022/02/13 01:32:10;;;;;;;61.90;26.07;;;-1.40;99.90;;;;;;2586201;54;20799;31
2022/02/13 01:34:43;;;;;;;43.57;20.87;;;-1.40;99.90;;;;;;2605038;46;20787;31
2022/02/13 01:37:16;;;;;;;35.77;18.57;;;-1.40;99.90;;;;;;2604882;46;20031;31
2022/02/13 01:39:50;;;;;;;35.35;17.52;;;-1.40;99.90;;;;;;2586171;54;21206;31
2022/02/13 01:42:27;;;;;;;31.77;17.00;;;-1.30;99.90;;;;;;2585994;54;20811;31
2022/02/13 01:44:59;;;;;;;30.37;14.90;;;-1.30;99.90;;;;;;2586269;54;20860;31
2022/02/13 01:47:34;;;;;;;31.48;16.10;;;-1.20;99.90;;;;;;2585972;54;20038;31
2022/02/13 01:50:10;;;;;;;34.07;16.83;;;-1.20;99.90;;;;;;2586250;54;20872;31
2022/02/13 01:52:44;;;;;;;30.70;13.93;;;-1.20;99.90;;;;;;2586216;54;20031;31
2022/02/13 01:55:17;;;;;;;26.30;14.50;;;-1.10;99.90;;;;;;2586112;54;20031;31
2022/02/13 01:57:55;;;;;;;26.10;13.80;;;-1.10;99.90;;;;;;2586080;54;20729;31
2022/02/13 02:00:28;;;;;;;29.25;14.90;;;-1.10;99.90;;;;;;2586252;54;20934;31
2022/02/13 02:03:02;;;;;;;27.85;14.02;;;-1.10;99.90;;;;;;2586300;54;20767;31
2022/02/13 02:05:32;;;;;;;28.57;14.43;;;-1.10;99.90;;;;;;2585967;54;20046;31
2022/02/13 02:08:04;;;;;;;33.77;16.10;;;-1.10;99.90;;;;;;2599830;47;20745;31
2022/02/13 02:10:39;;;;;;;38.63;17.75;;;-1.10;99.90;;;;;;2586008;54;20076;31
2022/02/13 02:13:18;;;;;;;40.00;19.70;;;-1.10;99.90;;;;;;2586032;54;20023;31
2022/02/13 02:15:51;;;;;;;30.05;13.20;;;-1.10;99.90;;;;;;2586045;54;20064;31
2022/02/13 02:18:23;;;;;;;26.15;13.23;;;-1.10;99.90;;;;;;2585981;54;20029;31
2022/02/13 02:21:02;;;;;;;27.75;14.80;;;-1.10;99.90;;;;;;2586066;54;20026;31
2022/02/13 02:23:37;;;;;;;36.28;17.83;;;-1.10;99.90;;;;;;2586035;54;20045;31
2022/02/13 02:26:10;;;;;;;39.55;19.75;;;-1.00;99.90;;;;;;2585981;54;20029;31
2022/02/13 02:28:43;;;;;;;26.42;13.68;;;-1.10;99.90;;;;;;2586091;54;20860;31
2022/02/13 02:31:15;;;;;;;22.85;13.00;;;-1.00;99.90;;;;;;2585967;54;20759;31
2022/02/13 02:33:46;;;;;;;26.77;13.63;;;-1.00;99.90;;;;;;2585784;54;20936;31
2022/02/13 02:36:19;;;;;;;29.50;13.73;;;-1.00;99.90;;;;;;2585932;54;20747;31
2022/02/13 02:38:57;;;;;;;33.15;15.90;;;-0.90;99.90;;;;;;2586158;54;20854;31
2022/02/13 02:41:30;;;;;;;31.60;16.60;;;-0.90;99.90;;;;;;2585642;54;20481;31
2022/02/13 02:44:04;;;;;;;30.13;16.10;;;-0.90;99.90;;;;;;2604843;47;20903;31
2022/02/13 02:46:34;;;;;;;25.85;14.55;;;-0.80;99.90;;;;;;2585676;54;20027;31
2022/02/13 02:49:06;;;;;;;27.17;12.97;;;-0.80;99.90;;;;;;2586053;54;20897;31
2022/02/13 02:51:41;;;;;;;25.42;13.75;;;-0.80;99.90;;;;;;2586021;54;20049;31
2022/02/13 02:54:17;;;;;;;24.05;11.77;;;-0.80;99.90;;;;;;2586399;54;20861;31
2022/02/13 02:56:49;;;;;;;20.40;11.77;;;-0.80;99.90;;;;;;2605391;46;20748;31
2022/02/13 02:59:21;;;;;;;22.80;11.30;;;-0.80;99.90;;;;;;2586978;54;20559;31
2022/02/13 03:01:53;;;;;;;18.92;10.85;;;-0.80;99.90;;;;;;2587031;54;20892;31
2022/02/13 03:04:28;;;;;;;22.95;11.27;;;-0.80;99.90;;;;;;2586700;54;20046;31
2022/02/13 03:07:02;;;;;;;26.67;13.55;;;-0.80;99.90;;;;;;2586819;54;20085;31
2022/02/13 03:09:37;;;;;;;23.92;12.60;;;-0.80;99.90;;;;;;2586979;54;20030;31
2022/02/13 03:12:10;;;;;;;22.30;11.43;;;-0.80;99.90;;;;;;2586909;54;20886;31
2022/02/13 03:14:42;;;;;;;20.25;10.73;;;-0.80;99.90;;;;;;2586626;54;20740;31
2022/02/13 03:17:16;;;;;;;20.60;11.20;;;-0.80;99.90;;;;;;2586794;54;20849;31
2022/02/13 03:19:50;;;;;;;21.95;11.40;;;-0.80;99.90;;;;;;2586929;54;20035;31
2022/02/13 03:22:24;;;;;;;20.50;10.77;;;-0.70;99.90;;;;;;2586714;54;20950;31
2022/02/13 03:25:01;;;;;;;21.95;10.10;;;-0.70;99.90;;;;;;2586880;54;20889;31
2022/02/13 03:27:35;;;;;;;19.50;9.65;;;-0.70;99.90;;;;;;2586685;54;20844;31
2022/02/13 03:30:08;;;;;;;21.73;10.27;;;-0.60;99.90;;;;;;2586640;54;20086;31
2022/02/13 03:32:40;;;;;;;21.85;10.45;;;-0.50;99.90;;;;;;2588563;46;20831;31
2022/02/13 03:35:12;;;;;;;17.70;9.95;;;-0.50;99.90;;;;;;2591614;46;20919;31
2022/02/13 03:37:45;;;;;;;20.05;9.55;;;-0.40;99.90;;;;;;2586713;54;20509;31
2022/02/13 03:40:20;;;;;;;19.63;10.13;;;-0.30;99.90;;;;;;2586967;54;20074;31
2022/02/13 03:42:52;;;;;;;19.23;9.75;;;-0.30;99.90;;;;;;2605479;46;20817;31
2022/02/13 03:45:24;;;;;;;11.32;6.07;;;-0.30;99.90;;;;;;2586648;54;20874;31
2022/02/13 03:47:56;;;;;;;8.40;4.57;;;-0.20;99.90;;;;;;2605182;46;20111;31
2022/02/13 03:50:29;;;;;;;19.63;10.87;;;0.00;99.90;;;;;;2605072;46;20362;31
2022/02/13 03:53:02;;;;;;;27.88;10.88;;;0.10;99.90;;;;;;2586610;54;20829;31
2022/02/13 03:55:37;;;;;;;21.85;10.07;;;0.10;99.90;;;;;;2586454;54;20870;31
2022/02/13 03:58:10;;;;;;;18.90;11.00;;;0.10;99.90;;;;;;2586833;54;20023;31
2022/02/13 04:00:45;;;;;;;14.90;8.88;;;0.10;99.90;;;;;;2586531;54;20744;31
2022/02/13 04:03:18;;;;;;;18.10;9.93;;;0.10;99.90;;;;;;2586363;54;20073;31
2022/02/13 04:05:48;;;;;;;17.40;9.48;;;0.10;99.90;;;;;;2594328;46;20950;31
2022/02/13 04:08:20;;;;;;;12.23;7.90;;;0.10;99.90;;;;;;2586482;54;20121;31
2022/02/13 04:10:56;;;;;;;14.93;8.52;;;0.10;99.90;;;;;;2586850;54;20895;31
2022/02/13 04:13:28;;;;;;;18.75;9.30;;;0.10;99.90;;;;;;2604818;46;20104;31
2022/02/13 04:16:00;;;;;;;18.85;9.38;;;0.10;99.90;;;;;;2586634;54;20886;31
2022/02/13 04:18:32;;;;;;;15.88;8.73;;;0.00;99.90;;;;;;2586742;54;20842;31
2022/02/13 04:21:05;;;;;;;19.80;9.80;;;0.00;99.90;;;;;;2586881;54;20556;31
2022/02/13 04:23:38;;;;;;;18.27;9.45;;;0.00;99.90;;;;;;2586426;54;20033;31
2022/02/13 04:26:13;;;;;;;16.55;9.40;;;0.00;99.90;;;;;;2605144;46;20970;31
2022/02/13 04:28:45;;;;;;;17.65;9.25;;;0.10;99.90;;;;;;2586680;54;20925;31
2022/02/13 04:31:20;;;;;;;13.95;8.50;;;0.10;99.90;;;;;;2586383;54;20837;31
2022/02/13 04:33:53;;;;;;;17.45;9.23;;;0.10;99.90;;;;;;2586455;54;20721;31
2022/02/13 04:36:28;;;;;;;14.25;7.88;;;0.20;99.90;;;;;;2586339;54;20826;31
2022/02/13 04:39:01;;;;;;;14.65;8.40;;;0.30;99.90;;;;;;2586562;54;20032;31
2022/02/13 04:41:36;;;;;;;17.10;8.00;;;0.40;99.90;;;;;;2586243;54;20793;31
2022/02/13 04:44:08;;;;;;;12.60;7.60;;;0.50;99.90;;;;;;2586662;54;20864;31
2022/02/13 04:46:43;;;;;;;14.30;7.10;;;0.60;99.90;;;;;;2586333;54;20951;31
2022/02/13 04:49:16;;;;;;;14.45;8.85;;;0.60;99.90;;;;;;2586260;54;20034;31
2022/02/13 04:51:49;;;;;;;17.10;8.13;;;0.70;99.90;;;;;;2586641;54;20922;31
2022/02/13 04:54:22;;;;;;;25.27;13.77;;;0.70;99.90;;;;;;2586288;54;20025;31
2022/02/13 04:57:01;;;;;;;32.00;16.92;;;0.70;99.90;;;;;;2586447;54;20758;31
2022/02/13 04:59:37;;;;;;;29.93;15.83;;;0.50;99.90;;;;;;2586199;54;20068;31
2022/02/13 05:02:11;;;;;;;29.13;15.13;;;0.40;99.90;;;;;;2586465;54;19993;31
2022/02/13 05:04:45;;;;;;;29.87;16.00;;;0.20;99.90;;;;;;2586185;46;20859;31
2022/02/13 05:07:16;;;;;;;26.83;14.73;;;0.00;99.90;;;;;;2586260;54;20954;31
2022/02/13 05:09:47;;;;;;;32.97;16.27;;;-0.20;99.90;;;;;;2586479;54;20904;31
2022/02/13 05:12:22;;;;;;;28.48;15.90;;;-0.30;99.90;;;;;;2586488;54;20787;31
2022/02/13 05:14:55;;;;;;;33.28;16.27;;;-0.40;99.90;;;;;;2586610;54;20826;31
2022/02/13 05:17:28;;;;;;;29.77;15.82;;;-0.50;99.90;;;;;;2586405;54;20026;31
2022/02/13 05:20:02;;;;;;;34.22;15.45;;;-0.60;99.90;;;;;;2586391;54;20856;31
2022/02/13 05:22:34;;;;;;;25.10;15.48;;;-0.70;99.90;;;;;;2586272;54;20932;31
2022/02/13 05:25:07;;;;;;;42.83;22.23;;;-0.70;99.90;;;;;;2586400;54;20859;31
2022/02/13 05:27:42;;;;;;;57.70;31.37;;;-0.80;99.90;;;;;;2586100;54;20755;31
2022/02/13 05:30:15;;;;;;;38.67;18.00;;;-0.80;99.90;;;;;;2586465;54;20938;31
2022/02/13 05:32:48;;;;;;;31.95;16.58;;;-0.80;99.90;;;;;;2605043;46;20061;31
2022/02/13 05:35:21;;;;;;;33.00;18.02;;;-0.90;99.90;;;;;;2586338;54;20030;31
2022/02/13 05:37:52;;;;;;;28.20;16.35;;;-1.00;99.90;;;;;;2585219;54;19948;31
2022/02/13 05:40:24;;;;;;;34.70;16.83;;;-1.10;99.90;;;;;;2586156;54;20848;31
2022/02/13 05:43:01;;;;;;;32.80;16.10;;;-1.20;99.90;;;;;;2683857;39;21292;31
2022/02/13 05:45:33;;;;;;;34.05;16.65;;;-1.30;99.90;;;;;;2585807;54;20937;31
2022/02/13 05:48:07;;;;;;;33.23;16.77;;;-1.30;99.90;;;;;;2586146;54;20890;31
2022/02/13 05:50:39;;;;;;;30.20;15.75;;;-1.30;99.90;;;;;;2586296;54;20050;31
2022/02/13 05:53:09;;;;;;;30.77;16.33;;;-1.30;99.90;;;;;;2585967;54;20085;31
2022/02/13 05:55:41;;;;;;;31.80;14.77;;;-1.40;99.90;;;;;;2586151;54;20053;31
2022/02/13 05:58:17;;;;;;;28.65;14.20;;;-1.40;99.90;;;;;;2586313;54;20851;31
2022/02/13 06:00:49;;;;;;;27.45;14.80;;;-1.40;99.90;;;;;;2586289;54;20882;31
2022/02/13 06:03:21;;;;;;;27.40;13.40;;;-1.40;99.90;;;;;;2585940;54;20729;31
2022/02/13 06:05:55;;;;;;;25.33;13.88;;;-1.40;99.90;;;;;;2586171;54;20034;31
2022/02/13 06:08:27;;;;;;;28.45;14.25;;;-1.50;99.90;;;;;;2586138;54;20038;31
2022/02/13 06:10:59;;;;;;;31.05;14.80;;;-1.50;99.90;;;;;;2604319;47;20457;31
2022/02/13 06:13:34;;;;;;;26.45;14.45;;;-1.50;99.90;;;;;;2585946;54;20042;31
2022/02/13 06:16:08;;;;;;;26.30;14.63;;;-1.60;99.90;;;;;;2585995;54;20787;31
2022/02/13 06:18:42;;;;;;;29.35;14.50;;;-1.60;99.90;;;;;;2586225;54;20836;31
2022/02/13 06:21:16;;;;;;;28.47;14.57;;;-1.60;99.90;;;;;;2586111;54;20845;31
2022/02/13 06:23:48;;;;;;;22.75;13.10;;;-1.60;99.90;;;;;;2585990;54;20113;31
2022/02/13 06:26:23;;;;;;;21.90;12.30;;;-1.60;99.90;;;;;;2585951;54;20915;31
2022/02/13 06:28:59;;;;;;;26.15;13.10;;;-1.50;99.90;;;;;;2586276;54;21367;31
2022/02/13 06:31:31;;;;;;;21.40;11.77;;;-1.50;99.90;;;;;;2586793;54;20103;31
2022/02/13 06:34:03;;;;;;;25.80;12.80;;;-1.50;99.90;;;;;;2605218;46;20030;31
2022/02/13 06:36:37;;;;;;;25.35;13.30;;;-1.40;99.90;;;;;;2586983;54;20898;31
2022/02/13 06:39:11;;;;;;;20.37;12.30;;;-1.40;99.90;;;;;;2684613;39;21278;31
2022/02/13 06:41:44;;;;;;;26.60;13.90;;;-1.30;99.90;;;;;;2586870;54;20035;31
2022/02/13 06:44:19;;;;;;;31.38;14.10;;;-1.20;99.90;;;;;;2586701;54;20861;31
2022/02/13 06:46:52;;;;;;;25.10;13.13;;;-1.10;99.90;;;;;;2586752;54;20915;31
2022/02/13 06:49:24;;;;;;;31.10;14.75;;;-1.10;99.90;;;;;;2586663;54;20030;31
2022/02/13 06:51:58;;;;;;;31.55;14.20;;;-1.00;99.90;;;;;;2586667;54;20049;31
2022/02/13 06:54:32;;;;;;;26.77;11.25;;;-0.90;99.90;;;;;;2586749;54;20749;31
2022/02/13 06:57:05;;;;;;;20.77;10.85;;;-0.80;99.90;;;;;;2586570;54;20022;31
2022/02/13 06:59:42;;;;;;;19.25;9.95;;;-0.70;99.90;;;;;;2587231;46;20897;31
2022/02/13 07:02:16;;;;;;;19.38;9.43;;;-0.60;99.90;;;;;;2586718;54;20809;31
2022/02/13 07:04:50;;;;;;;18.88;9.93;;;-0.50;99.90;;;;;;2605015;46;20434;31
2022/02/13 07:07:24;;;;;;;16.97;9.13;;;-0.40;99.90;;;;;;2605398;46;20595;31
2022/02/13 07:09:56;;;;;;;16.15;9.85;;;-0.30;99.90;;;;;;2596153;46;20030;31
2022/02/13 07:12:29;;;;;;;16.63;8.95;;;-0.20;99.90;;;;;;2586909;54;20042;31
2022/02/13 07:15:03;;;;;;;17.52;8.15;;;-0.10;99.90;;;;;;2604992;46;20886;31
2022/02/13 07:17:37;;;;;;;;;;;0.00;99.90;;;;;;2586854;54;20601;31
2022/02/13 07:20:13;;;;;;;11.80;6.90;;;0.10;99.90;;;;;;2586976;54;19935;31
2022/02/13 07:22:46;;;;;;;13.13;7.63;;;0.20;99.90;;;;;;2586731;54;20030;31
2022/02/13 07:25:21;;;;;;;13.55;7.35;;;0.30;99.90;;;;;;2586480;54;20765;31
2022/02/13 07:27:54;;;;;;;11.10;6.30;;;0.40;99.90;;;;;;2586798;54;20891;31
2022/02/13 07:30:34;;;;;;;12.05;7.10;;;0.60;99.90;;;;;;2586644;54;20833;31
2022/02/13 07:33:08;;;;;;;9.53;5.90;;;0.80;99.90;;;;;;2600733;46;20844;31
2022/02/13 07:35:43;;;;;;;11.05;6.35;;;1.00;99.90;;;;;;2586784;54;20029;31
2022/02/13 07:38:16;;;;;;;12.60;5.65;;;1.10;99.90;;;;;;2586811;54;20152;31
2022/02/13 07:40:51;;;;;;;11.90;6.40;;;1.20;99.90;;;;;;2586369;54;20027;31
2022/02/13 07:43:26;;;;;;;9.60;5.88;;;1.30;99.90;;;;;;2586679;54;20066;31
2022/02/13 07:46:02;;;;;;;9.90;5.70;;;1.40;99.90;;;;;;2586525;54;19935;31
2022/02/13 07:48:34;;;;;;;9.25;6.03;;;1.50;99.90;;;;;;2586580;54;20924;31
2022/02/13 07:51:09;;;;;;;9.03;5.70;;;1.80;99.90;;;;;;2591733;46;20033;31
2022/02/13 07:53:44;;;;;;;10.80;6.10;;;2.10;99.90;;;;;;2586311;54;20470;31
2022/02/13 07:56:18;;;;;;;;;;;2.30;99.90;;;;;;2586821;54;20836;31
2022/02/13 07:58:49;;;;;;;12.35;6.43;;;2.60;99.90;;;;;;2605178;46;20765;31
2022/02/13 08:01:24;;;;;;;11.10;6.00;;;3.00;99.90;;;;;;2586615;54;20736;31
2022/02/13 08:03:57;;;;;;;12.75;6.25;;;3.50;99.90;;;;;;2586313;54;20028;31
2022/02/13 08:06:30;;;;;;;9.80;6.38;;;4.10;99.90;;;;;;2586489;54;20844;31
2022/02/13 08:09:05;;;;;;;13.77;6.50;;;4.90;99.90;;;;;;2684158;39;20437;31
2022/02/13 08:11:39;;;;;;;12.60;7.15;;;5.40;99.90;;;;;;2586466;54;20023;31
2022/02/13 08:14:12;;;;;;;12.38;6.85;;;6.00;99.90;;;;;;2586395;54;20882;31
2022/02/13 08:16:51;;;;;;;8.68;5.60;;;6.50;99.90;;;;;;2586545;54;20736;31
2022/02/13 08:19:23;;;;;;;9.05;5.63;;;6.60;99.90;;;;;;2588691;46;20889;31
2022/02/13 08:21:55;;;;;;;11.45;6.65;;;6.70;99.90;;;;;;2586297;54;20170;31
2022/02/13 08:24:29;;;;;;;12.85;6.70;;;7.00;99.90;;;;;;2595941;46;20038;31
2022/02/13 08:27:03;;;;;;;13.70;6.25;;;7.40;99.90;;;;;;2586356;54;20045;31
2022/02/13 08:29:37;;;;;;;12.15;7.45;;;7.70;99.90;;;;;;2586316;54;20871;31
2022/02/13 08:32:13;;;;;;;9.77;6.03;;;7.90;99.90;;;;;;2600384;46;21125;31
2022/02/13 08:34:46;;;;;;;11.60;6.70;;;8.30;99.90;;;;;;2586386;54;20664;31
2022/02/13 08:37:20;;;;;;;10.02;6.68;;;8.70;99.90;;;;;;2586382;54;20932;31
2022/02/13 08:39:53;;;;;;;11.55;6.63;;;9.00;99.90;;;;;;2586801;54;20740;31
2022/02/13 08:42:26;;;;;;;15.05;6.40;;;9.30;99.90;;;;;;2586414;54;19961;31
2022/02/13 08:45:00;;;;;;;9.15;5.50;;;9.70;99.90;;;;;;2586353;54;20061;31
2022/02/13 08:47:39;;;;;;;8.25;5.65;;;9.80;99.90;;;;;;2586320;54;20064;31
2022/02/13 08:50:13;;;;;;;8.70;6.23;;;9.70;99.90;;;;;;2586415;54;20885;31
2022/02/13 08:52:47;;;;;;;11.77;6.18;;;9.50;99.90;;;;;;2586340;54;20026;31
2022/02/13 08:55:22;;;;;;;9.90;6.20;;;9.60;99.90;;;;;;2586215;54;20418;31
2022/02/13 08:57:55;;;;;;;9.60;6.10;;;9.90;99.90;;;;;;2586379;54;20754;31
2022/02/13 09:00:31;;;;;;;13.90;6.15;;;10.30;99.90;;;;;;2586455;54;21063;31
2022/02/13 09:03:06;;;;;;;9.25;5.60;;;10.30;99.90;;;;;;2586378;54;20032;31
2022/02/13 09:05:41;;;;;;;10.13;6.17;;;10.60;99.90;;;;;;2586178;54;20023;31
2022/02/13 09:08:15;;;;;;;8.05;5.60;;;10.80;99.60;;;;;;2586043;54;20239;31
2022/02/13 09:10:49;;;;;;;8.75;5.65;;;11.00;99.40;;;;;;2605051;46;20030;31
2022/02/13 09:13:22;;;;;;;9.45;5.75;;;11.20;99.50;;;;;;2592497;46;20753;31
2022/02/13 09:15:57;;;;;;;9.65;5.40;;;11.50;97.90;;;;;;2586121;54;20046;31
2022/02/13 09:18:35;;;;;;;10.88;5.68;;;11.60;98.50;;;;;;2586289;54;20018;31
2022/02/13 09:21:08;;;;;;;12.13;6.15;;;11.60;96.00;;;;;;2586151;54;20859;31
2022/02/13 09:23:42;;;;;;;7.60;5.13;;;11.60;96.90;;;;;;2586107;54;20844;31
2022/02/13 09:26:16;;;;;;;7.75;5.40;;;11.70;96.60;;;;;;2586204;54;20023;31
2022/02/13 09:28:49;;;;;;;8.00;5.78;;;11.80;95.00;;;;;;2604898;46;20037;31
2022/02/13 09:31:23;;;;;;;11.25;6.65;;;11.70;94.40;;;;;;2585959;54;20026;31
2022/02/13 09:33:59;;;;;;;12.15;6.20;;;11.80;94.60;;;;;;2586100;54;21037;31
2022/02/13 09:36:32;;;;;;;10.75;6.15;;;11.80;94.40;;;;;;2586868;46;20093;31
2022/02/13 09:39:04;;;;;;;6.95;5.05;;;11.70;94.00;;;;;;2586548;54;20919;31
2022/02/13 09:41:37;;;;;;;8.45;5.78;;;11.80;94.60;;;;;;2587111;46;20894;31
2022/02/13 09:44:10;;;;;;;10.20;5.30;;;11.70;92.70;;;;;;2586879;54;20144;31
2022/02/13 09:46:43;;;;;;;9.55;5.70;;;11.80;93.50;;;;;;2586148;54;20140;31
2022/02/13 09:49:18;;;;;;;10.40;5.75;;;11.80;94.00;;;;;;2588061;54;20973;31
2022/02/13 09:51:51;;;;;;;8.38;4.78;;;11.90;93.60;;;;;;2683978;39;20442;31
2022/02/13 09:54:25;;;;;;;9.10;4.63;;;12.00;91.30;;;;;;2594664;46;20019;31
2022/02/13 09:57:59;;;;;;;11.20;4.85;;;12.10;92.40;;;;;;2702800;39;20344;31
2022/02/13 09:59:50;;;;;;;9.90;3.80;;;12.00;91.50;;;;;;2587193;54;20966;31
2022/02/13 10:02:37;;;;;;;6.60;3.85;;;11.90;89.00;;;;;;2586209;54;20137;31
2022/02/13 10:05:14;;;;;;;10.05;4.65;;;11.70;88.50;;;;;;2586171;54;20140;31
2022/02/13 10:07:47;;;;;;;9.07;5.43;;;11.70;91.00;;;;;;2586590;54;20049;31
2022/02/13 10:10:21;;;;;;;8.55;5.13;;;11.70;91.00;;;;;;2587690;47;20057;31
2022/02/13 10:12:55;;;;;;;8.75;4.90;;;11.40;90.20;;;;;;2599115;54;20018;31
2022/02/13 10:15:31;;;;;;;6.88;4.60;;;11.30;91.30;;;;;;2591028;47;20944;31
2022/02/13 10:18:07;;;;;;;9.00;4.40;;;11.40;89.80;;;;;;2604649;47;20859;31
2022/02/13 10:20:42;;;;;;;7.90;4.07;;;11.30;88.90;;;;;;2586964;54;20033;31
2022/02/13 10:23:18;;;;;;;9.50;5.00;;;11.20;90.30;;;;;;2602537;54;20069;31
2022/02/13 10:25:51;;;;;;;7.30;4.63;;;11.10;88.70;;;;;;2585961;54;20112;31
2022/02/13 10:28:25;;;;;;;7.75;4.95;;;11.00;88.20;;;;;;2585579;54;20033;31
2022/02/13 10:30:59;;;;;;;7.97;5.38;;;10.90;90.50;;;;;;2586442;47;20041;31
2022/02/13 10:33:31;;;;;;;9.80;5.10;;;10.80;90.00;;;;;;2585864;54;20747;31
2022/02/13 10:36:23;;;;;;;8.45;4.65;;;10.70;90.30;;;;;;2585558;54;20249;31
2022/02/13 10:38:55;;;;;;;6.80;4.80;;;10.70;90.40;;;;;;2585800;54;20865;31
2022/02/13 10:41:29;;;;;;;7.07;4.35;;;10.60;90.60;;;;;;2585874;54;20823;31
2022/02/13 10:44:03;;;;;;;8.10;3.97;;;10.40;89.80;;;;;;2586144;54;21534;31
2022/02/13 10:46:36;;;;;;;7.80;4.35;;;10.40;90.20;;;;;;2589155;54;20070;31
2022/02/13 10:49:14;;;;;;;7.35;4.20;;;10.20;88.50;;;;;;2585789;54;20050;31
2022/02/13 10:51:51;;;;;;;5.80;3.75;;;10.20;90.50;;;;;;2586141;54;21166;31
2022/02/13 10:54:24;;;;;;;6.22;3.60;;;10.10;87.20;;;;;;2585889;54;20153;31
2022/02/13 10:56:58;;;;;;;7.13;4.03;;;10.10;87.90;;;;;;2585937;54;20153;31
2022/02/13 10:59:30;;;;;;;6.83;3.90;;;10.00;89.40;;;;;;2586233;54;20120;31
2022/02/13 11:02:05;;;;;;;7.70;4.30;;;10.00;90.20;;;;;;2585814;54;20757;31
2022/02/13 11:04:38;;;;;;;7.50;4.70;;;10.10;90.80;;;;;;2585797;54;20080;31
2022/02/13 11:07:13;;;;;;;6.45;4.68;;;10.00;90.20;;;;;;2585756;54;20042;31
2022/02/13 11:09:46;;;;;;;10.00;4.72;;;10.10;91.30;;;;;;2586294;54;20044;31
2022/02/13 11:12:20;;;;;;;7.50;4.32;;;10.00;91.10;;;;;;2585798;54;20018;31
2022/02/13 11:14:52;;;;;;;10.60;4.40;;;9.90;90.60;;;;;;2586510;54;20044;31
2022/02/13 11:17:30;;;;;;;7.25;4.30;;;9.90;90.60;;;;;;2586156;54;20028;31
2022/02/13 11:20:04;;;;;;;6.80;4.07;;;9.80;89.80;;;;;;2590172;54;20899;31
2022/02/13 11:22:39;;;;;;;6.90;4.65;;;9.70;90.90;;;;;;2590251;46;20085;31
2022/02/13 11:25:12;;;;;;;10.50;4.80;;;9.60;90.80;;;;;;2587044;54;20325;31
2022/02/13 11:27:57;;;;;;;8.93;4.97;;;9.60;91.60;;;;;;2586558;54;20069;31
2022/02/13 11:30:45;;;;;;;10.02;5.20;;;9.30;90.70;;;;;;2605625;46;20932;31
2022/02/13 11:33:45;;;;;;;9.40;5.32;;;9.20;91.70;;;;;;2586846;54;20884;31
2022/02/13 11:36:17;;;;;;;8.55;5.50;;;9.00;92.00;;;;;;2587381;54;20217;31
2022/02/13 11:39:00;;;;;;;9.13;4.90;;;9.00;92.80;;;;;;2586444;54;20065;31
2022/02/13 11:42:19;;;;;;;9.90;5.07;;;8.90;92.40;;;;;;2587446;54;20049;31
2022/02/13 11:44:54;;;;;;;9.93;6.10;;;8.80;93.20;;;;;;2586996;54;20030;31
2022/02/13 11:47:41;;;;;;;10.70;5.90;;;8.70;93.30;;;;;;2586741;54;20063;31
2022/02/13 11:50:24;;;;;;;9.87;5.43;;;8.60;93.30;;;;;;2586688;54;20054;31
2022/02/13 11:53:07;;;;;;;10.82;5.32;;;8.40;93.60;;;;;;2586828;54;20863;31
2022/02/13 11:55:44;;;;;;;9.43;5.53;;;8.30;93.80;;;;;;2605082;46;20133;31
2022/02/13 11:58:18;;;;;;;9.40;5.40;;;8.20;93.80;;;;;;2586956;54;20090;31
2022/02/13 12:00:54;;;;;;;9.20;5.40;;;8.20;94.60;;;;;;2586424;54;20104;31
2022/02/13 12:03:25;;;;;;;10.23;5.50;;;8.00;94.40;;;;;;2586778;54;20030;31
2022/02/13 12:06:33;;;;;;;11.30;4.80;;;8.00;94.90;;;;;;2587172;54;20739;31
2022/02/13 12:09:07;;;;;;;9.73;5.15;;;7.80;93.80;;;;;;2593692;54;20025;31
2022/02/13 12:11:45;;;;;;;12.27;6.07;;;7.80;94.60;;;;;;2585742;54;20019;31
2022/02/13 12:14:20;;;;;;;8.70;5.07;;;7.80;94.90;;;;;;2588817;54;20050;31
2022/02/13 12:16:55;;;;;;;10.57;5.57;;;7.70;94.80;;;;;;2586581;54;20046;31
2022/02/13 12:19:34;;;;;;;8.60;5.05;;;7.70;94.80;;;;;;2586577;54;20761;31
2022/02/13 12:22:11;;;;;;;11.60;4.90;;;7.70;95.30;;;;;;2586280;54;19935;31
2022/02/13 12:24:43;;;;;;;13.55;5.30;;;7.70;95.20;;;;;;2586031;54;20042;31
2022/02/13 12:27:22;;;;;;;8.70;4.93;;;7.80;95.40;;;;;;2611441;39;20940;31
2022/02/13 12:29:56;;;;;;;11.20;4.53;;;7.80;95.70;;;;;;2586567;54;20023;31
2022/02/13 12:32:30;;;;;;;9.43;5.20;;;7.80;95.30;;;;;;2586535;54;20732;31
2022/02/13 12:35:01;;;;;;;8.67;5.07;;;7.70;95.60;;;;;;2589148;39;21013;31
2022/02/13 12:37:38;;;;;;;7.22;4.70;;;7.70;96.10;;;;;;2587113;46;20037;31
2022/02/13 12:40:13;;;;;;;8.85;4.80;;;7.70;95.30;;;;;;2586304;54;20049;31
2022/02/13 12:42:48;;;;;;;10.97;5.00;;;7.70;96.00;;;;;;2586052;54;20966;31
2022/02/13 12:45:27;;;;;;;12.95;5.70;;;7.70;95.80;;;;;;2598230;54;20892;31
2022/02/13 12:48:00;;;;;;;8.32;5.03;;;7.60;95.50;;;;;;2590890;54;19955;31
2022/02/13 12:50:33;;;;;;;9.18;5.00;;;7.70;95.60;;;;;;2587834;54;20916;31
2022/02/13 12:53:06;;;;;;;10.05;5.10;;;7.60;95.80;;;;;;2586631;54;20073;31
2022/02/13 12:55:39;;;;;;;7.30;4.40;;;7.60;95.60;;;;;;2590664;54;20022;31
2022/02/13 12:58:14;;;;;;;9.18;5.22;;;7.60;95.60;;;;;;2586607;54;20220;31
2022/02/13 13:00:48;;;;;;;11.20;4.40;;;7.60;96.40;;;;;;2586549;54;21235;31
2022/02/13 13:03:39;;;;;;;9.80;5.05;;;7.60;96.00;;;;;;2586635;46;20717;31
2022/02/13 13:06:13;;;;;;;7.27;4.27;;;7.60;96.50;;;;;;2586309;54;20042;31
2022/02/13 13:08:46;;;;;;;6.57;4.90;;;7.60;96.10;;;;;;2586425;54;21417;31
2022/02/13 13:11:29;;;;;;;8.75;4.90;;;7.60;96.90;;;;;;2586294;54;20740;31
2022/02/13 13:14:14;;;;;;;9.10;4.80;;;7.70;96.70;;;;;;2586812;54;20238;31
2022/02/13 13:16:46;;;;;;;9.07;4.63;;;7.60;96.40;;;;;;2596062;54;20015;31
2022/02/13 13:19:30;;;;;;;9.02;4.18;;;7.70;96.60;;;;;;2586452;54;20157;31
2022/02/13 13:22:20;;;;;;;6.38;3.97;;;7.60;96.50;;;;;;2586526;54;20026;31
2022/02/13 13:24:52;;;;;;;9.95;4.93;;;7.70;96.70;;;;;;2586513;54;20027;31
2022/02/13 13:27:26;;;;;;;8.53;4.33;;;7.70;96.20;;;;;;2587140;54;20743;31
2022/02/13 13:30:01;;;;;;;9.82;4.00;;;7.80;96.40;;;;;;2590862;54;20077;31